createdAt,value
2019-03-15T00:01:59.233Z,38.43
2019-03-15T00:04:28.893Z,38.37
2019-03-15T00:07:00.006Z,38.30
2019-03-15T00:09:30.111Z,38.07
2019-03-15T00:11:59.769Z,38.53
2019-03-15T00:14:29.437Z,38.33
2019-03-15T00:16:59.111Z,38.37
2019-03-15T00:19:28.778Z,37.67
2019-03-15T00:21:58.442Z,38.57
2019-03-15T00:24:28.133Z,37.87
2019-03-15T00:26:57.783Z,38.07
2019-03-15T00:29:27.436Z,38.33
2019-03-15T00:31:57.214Z,37.80
2019-03-15T00:34:26.878Z,38.50
2019-03-15T00:36:56.550Z,37.83
2019-03-15T00:39:26.247Z,37.97
2019-03-15T00:41:55.893Z,38.10
2019-03-15T00:44:25.552Z,38.03
2019-03-15T00:46:55.243Z,38.40
2019-03-15T00:49:24.847Z,38.23
2019-03-15T00:51:54.544Z,38.50
2019-03-15T00:54:25.451Z,38.27
2019-03-15T00:56:55.375Z,39.47
2019-03-15T00:59:26.599Z,38.63
2019-03-15T01:01:56.273Z,40.00
2019-03-15T01:04:25.877Z,40.30
2019-03-15T01:06:55.564Z,39.83
2019-03-15T01:09:25.247Z,39.07
2019-03-15T01:11:54.915Z,39.77
2019-03-15T01:14:25.976Z,40.70
2019-03-15T01:16:55.883Z,40.10
2019-03-15T01:19:25.535Z,39.97
2019-03-15T01:21:55.196Z,40.17
2019-03-15T01:24:25.488Z,40.23
2019-03-15T01:26:55.148Z,39.70
2019-03-15T01:29:24.938Z,39.77
2019-03-15T01:31:54.922Z,39.17
2019-03-15T01:34:24.604Z,39.40
2019-03-15T01:36:54.271Z,38.83
2019-03-15T01:39:23.910Z,38.57
2019-03-15T01:41:53.488Z,38.50
2019-03-15T01:44:23.166Z,38.50
2019-03-15T01:46:52.856Z,38.27
2019-03-15T01:49:22.520Z,38.43
2019-03-15T01:51:52.189Z,38.70
2019-03-15T01:54:21.917Z,38.47
2019-03-15T01:56:51.580Z,37.63
2019-03-15T01:59:21.253Z,37.93
2019-03-15T02:01:50.876Z,38.00
2019-03-15T02:04:20.562Z,37.63
2019-03-15T02:06:50.255Z,38.20
2019-03-15T02:09:20.092Z,37.87
2019-03-15T02:11:49.898Z,38.07
2019-03-15T02:14:19.927Z,38.03
2019-03-15T02:16:49.602Z,38.20
2019-03-15T02:19:19.249Z,37.17
2019-03-15T02:21:49.088Z,37.43
2019-03-15T02:24:18.774Z,37.23
2019-03-15T02:26:50.506Z,37.40
2019-03-15T02:29:22.575Z,37.63
2019-03-15T02:31:52.249Z,37.57
2019-03-15T02:34:21.926Z,37.77
2019-03-15T02:36:51.564Z,37.37
2019-03-15T02:39:22.717Z,37.53
2019-03-15T02:41:53.587Z,37.37
2019-03-15T02:44:23.252Z,37.93
2019-03-15T02:46:52.926Z,37.17
2019-03-15T02:49:22.589Z,36.90
2019-03-15T02:51:52.589Z,36.67
2019-03-15T02:54:22.299Z,37.13
2019-03-15T02:56:52.141Z,37.07
2019-03-15T02:59:21.821Z,37.00
2019-03-15T03:01:51.504Z,36.93
2019-03-15T03:04:21.088Z,37.60
2019-03-15T03:06:50.762Z,37.03
2019-03-15T03:09:22.058Z,37.17
2019-03-15T03:11:51.718Z,36.93
2019-03-15T03:14:21.843Z,37.47
2019-03-15T03:16:51.526Z,37.60
2019-03-15T03:19:21.172Z,37.20
2019-03-15T03:21:50.833Z,37.13
2019-03-15T03:24:20.533Z,37.30
2019-03-15T03:26:50.178Z,37.60
2019-03-15T03:29:21.818Z,37.07
2019-03-15T03:31:51.701Z,36.93
2019-03-15T03:34:21.379Z,37.10
2019-03-15T03:36:52.240Z,37.37
2019-03-15T03:39:22.378Z,37.30
2019-03-15T03:41:52.285Z,37.30
2019-03-15T03:44:21.925Z,37.70
2019-03-15T03:47:10.828Z,37.23
2019-03-15T03:49:40.533Z,37.50
2019-03-15T03:52:10.203Z,37.33
2019-03-15T03:54:39.861Z,37.17
2019-03-15T03:57:11.178Z,37.23
2019-03-15T03:59:40.839Z,37.23
2019-03-15T04:02:10.713Z,37.27
2019-03-15T04:04:40.703Z,37.20
2019-03-15T04:07:10.356Z,37.07
2019-03-15T04:09:40.226Z,37.30
2019-03-15T04:12:10.011Z,37.27
2019-03-15T04:14:39.951Z,37.37
2019-03-15T04:17:09.599Z,37.87
2019-03-15T04:19:39.277Z,37.70
2019-03-15T04:22:28.201Z,37.33
2019-03-15T04:24:57.802Z,37.53
2019-03-15T04:27:27.471Z,37.27
2019-03-15T04:29:57.143Z,37.13
2019-03-15T04:32:26.817Z,37.57
2019-03-15T04:34:56.482Z,37.17
2019-03-15T04:37:26.164Z,37.63
2019-03-15T04:39:55.820Z,37.23
2019-03-15T04:42:25.469Z,37.47
2019-03-15T04:44:55.136Z,37.40
2019-03-15T04:47:44.184Z,37.40
2019-03-15T04:50:14.023Z,37.47
2019-03-15T04:52:43.691Z,37.53
2019-03-15T04:55:13.383Z,37.27
2019-03-15T04:57:43.036Z,37.33
2019-03-15T05:00:14.568Z,37.23
2019-03-15T05:02:44.263Z,37.83
2019-03-15T05:05:13.903Z,37.80
2019-03-15T05:07:43.571Z,37.47
2019-03-15T05:10:17.553Z,37.47
2019-03-15T05:12:47.232Z,37.83
2019-03-15T05:15:18.323Z,37.40
2019-03-15T05:17:47.985Z,37.70
2019-03-15T05:20:20.896Z,37.67
2019-03-15T05:22:49.016Z,37.80
2019-03-15T05:25:18.687Z,37.27
2019-03-15T05:27:51.040Z,37.20
2019-03-15T05:30:21.087Z,37.43
2019-03-15T05:32:50.783Z,37.53
2019-03-15T05:35:20.436Z,37.10
2019-03-15T05:37:50.111Z,37.37
2019-03-15T05:40:19.801Z,37.40
2019-03-15T05:42:49.466Z,37.90
2019-03-15T05:45:19.127Z,37.40
2019-03-15T05:47:48.818Z,38.07
2019-03-15T05:50:18.494Z,38.10
2019-03-15T05:52:48.134Z,38.13
2019-03-15T05:55:17.885Z,38.07
2019-03-15T05:57:47.541Z,37.90
2019-03-15T06:00:17.493Z,38.33
2019-03-15T06:02:47.165Z,38.83
2019-03-15T06:05:16.810Z,37.87
2019-03-15T06:07:46.516Z,38.03
2019-03-15T06:10:16.203Z,38.00
2019-03-15T06:12:47.327Z,38.27
2019-03-15T06:15:16.988Z,37.67
2019-03-15T06:17:46.687Z,37.57
2019-03-15T06:20:16.651Z,38.33
2019-03-15T06:22:46.307Z,38.40
2019-03-15T06:25:15.992Z,38.20
2019-03-15T06:27:45.656Z,38.13
2019-03-15T06:30:16.447Z,37.90
2019-03-15T06:32:46.148Z,38.23
2019-03-15T06:35:15.789Z,38.43
2019-03-15T06:37:45.463Z,38.37
2019-03-15T06:40:15.151Z,38.90
2019-03-15T06:42:44.809Z,37.87
2019-03-15T06:45:15.566Z,37.63
2019-03-15T06:47:45.168Z,37.53
2019-03-15T06:50:14.834Z,37.73
2019-03-15T06:52:44.492Z,37.93
2019-03-15T06:55:14.180Z,38.07
2019-03-15T06:57:43.829Z,38.23
2019-03-15T07:00:16.283Z,37.97
2019-03-15T07:02:46.398Z,37.60
2019-03-15T07:05:16.413Z,38.40
2019-03-15T07:07:46.087Z,37.97
2019-03-15T07:10:17.205Z,38.80
2019-03-15T07:12:46.869Z,38.07
2019-03-15T07:15:16.830Z,37.60
2019-03-15T07:17:46.535Z,37.70
2019-03-15T07:20:17.404Z,38.07
2019-03-15T07:22:47.075Z,38.23
2019-03-15T07:25:16.739Z,38.90
2019-03-15T07:27:47.141Z,37.97
2019-03-15T07:30:17.224Z,38.37
2019-03-15T07:32:46.909Z,37.57
2019-03-15T07:35:16.558Z,37.83
2019-03-15T07:37:47.119Z,37.87
2019-03-15T07:40:18.300Z,37.90
2019-03-15T07:42:48.381Z,37.70
2019-03-15T07:45:18.163Z,38.07
2019-03-15T07:47:47.905Z,38.07
2019-03-15T07:50:17.565Z,37.90
2019-03-15T07:52:47.224Z,37.83
2019-03-15T07:55:16.905Z,37.87
2019-03-15T07:57:46.566Z,37.93
2019-03-15T08:00:18.111Z,37.83
2019-03-15T08:02:47.804Z,38.47
2019-03-15T08:05:17.449Z,37.37
2019-03-15T08:07:47.118Z,38.00
2019-03-15T08:10:17.118Z,37.90
2019-03-15T08:12:49.672Z,37.00
2019-03-15T08:15:18.141Z,37.80
2019-03-15T08:17:47.853Z,38.20
2019-03-15T08:20:17.507Z,37.50
2019-03-15T08:22:47.172Z,37.90
2019-03-15T08:25:16.862Z,37.77
2019-03-15T08:27:46.604Z,37.93
2019-03-15T08:30:18.862Z,37.77
2019-03-15T08:32:48.542Z,37.63
2019-03-15T08:35:18.210Z,37.93
2019-03-15T08:37:48.285Z,37.80
2019-03-15T08:40:18.246Z,37.60
2019-03-15T08:42:48.203Z,37.67
2019-03-15T08:45:20.570Z,38.33
2019-03-15T08:47:50.253Z,37.83
2019-03-15T08:50:24.266Z,37.77
2019-03-15T08:52:54.130Z,37.93
2019-03-15T08:55:23.897Z,38.03
2019-03-15T08:57:53.570Z,37.90
2019-03-15T09:00:23.238Z,38.07
2019-03-15T09:02:52.901Z,37.63
2019-03-15T09:05:22.645Z,37.70
2019-03-15T09:07:52.342Z,37.77
2019-03-15T09:10:24.222Z,37.73
2019-03-15T09:12:54.021Z,38.10
2019-03-15T09:15:23.732Z,38.07
2019-03-15T09:17:53.396Z,38.30
2019-03-15T09:20:29.679Z,38.50
2019-03-15T09:22:56.095Z,38.10
2019-03-15T09:25:25.760Z,38.50
2019-03-15T09:27:55.429Z,37.97
2019-03-15T09:30:25.112Z,38.80
2019-03-15T09:32:54.774Z,38.23
2019-03-15T09:35:24.445Z,38.27
2019-03-15T09:37:54.135Z,38.57
2019-03-15T09:40:25.755Z,38.63
2019-03-15T09:42:55.166Z,38.57
2019-03-15T09:45:24.841Z,38.60
2019-03-15T09:47:54.538Z,38.43
2019-03-15T09:50:36.013Z,38.40
2019-03-15T09:52:57.037Z,38.60
2019-03-15T09:55:33.012Z,38.47
2019-03-15T09:57:58.456Z,38.20
2019-03-15T10:00:28.376Z,39.30
2019-03-15T10:02:58.026Z,38.73
2019-03-15T10:05:27.737Z,38.57
2019-03-15T10:07:58.747Z,38.17
2019-03-15T10:10:28.405Z,38.50
2019-03-15T10:13:06.270Z,38.17
2019-03-15T10:15:35.239Z,38.50
2019-03-15T10:18:05.068Z,38.57
2019-03-15T10:20:34.723Z,38.53
2019-03-15T10:23:06.280Z,38.00
2019-03-15T10:25:46.257Z,38.53
2019-03-15T10:28:07.316Z,38.43
2019-03-15T10:30:38.389Z,38.87
2019-03-15T10:33:08.438Z,38.30
2019-03-15T10:35:38.095Z,38.13
2019-03-15T10:38:07.786Z,38.30
2019-03-15T10:40:37.446Z,38.57
2019-03-15T10:43:07.136Z,38.40
2019-03-15T10:45:36.804Z,38.77
2019-03-15T10:48:08.060Z,38.20
2019-03-15T10:50:37.824Z,38.53
2019-03-15T10:53:07.513Z,38.70
2019-03-15T10:55:37.163Z,38.80
2019-03-15T10:58:06.851Z,39.03
2019-03-15T11:00:37.012Z,39.10
2019-03-15T11:03:06.692Z,38.40
2019-03-15T11:05:36.436Z,38.47
2019-03-15T11:08:06.655Z,38.57
2019-03-15T11:10:36.325Z,38.60
2019-03-15T11:13:05.988Z,38.83
2019-03-15T11:15:35.705Z,38.33
2019-03-15T11:18:05.354Z,38.57
2019-03-15T11:20:35.025Z,39.50
2019-03-15T11:23:04.732Z,38.17
2019-03-15T11:25:34.462Z,38.43
2019-03-15T11:28:04.135Z,38.23
2019-03-15T11:30:33.817Z,38.83
2019-03-15T11:33:03.476Z,38.33
2019-03-15T11:35:33.209Z,38.57
2019-03-15T11:38:03.002Z,39.43
2019-03-15T11:40:32.685Z,38.57
2019-03-15T11:43:02.341Z,38.83
2019-03-15T11:45:32.066Z,39.10
2019-03-15T11:48:04.163Z,38.67
2019-03-15T11:50:33.098Z,38.77
2019-03-15T11:53:02.792Z,39.03
2019-03-15T11:55:32.638Z,38.30
2019-03-15T11:58:02.299Z,38.77
2019-03-15T12:00:31.989Z,39.33
2019-03-15T12:03:01.634Z,38.50
2019-03-15T12:05:31.303Z,37.90
2019-03-15T12:08:01.057Z,38.60
2019-03-15T12:10:31.000Z,39.40
2019-03-15T12:13:00.653Z,38.60
2019-03-15T12:15:30.351Z,39.17
2019-03-15T12:18:00.088Z,38.93
2019-03-15T12:20:29.810Z,39.00
2019-03-15T12:22:59.501Z,38.80
2019-03-15T12:25:31.419Z,38.67
2019-03-15T12:28:04.888Z,38.97
2019-03-15T12:30:34.664Z,39.23
2019-03-15T12:33:05.425Z,38.90
2019-03-15T12:35:35.116Z,38.27
2019-03-15T12:38:04.817Z,38.40
2019-03-15T12:40:34.463Z,38.77
2019-03-15T12:43:04.119Z,39.03
2019-03-15T12:45:33.831Z,38.87
2019-03-15T12:48:03.485Z,38.77
2019-03-15T12:50:33.165Z,38.87
2019-03-15T12:53:02.839Z,38.70
2019-03-15T12:55:32.538Z,37.97
2019-03-15T12:58:02.255Z,37.93
2019-03-15T13:00:31.923Z,39.60
2019-03-15T13:03:01.601Z,38.60
2019-03-15T13:05:31.276Z,38.50
2019-03-15T13:08:00.976Z,38.40
2019-03-15T13:10:30.639Z,39.23
2019-03-15T13:13:00.352Z,38.77
2019-03-15T13:15:32.005Z,38.93
2019-03-15T13:18:01.521Z,38.90
2019-03-15T13:20:31.122Z,38.93
2019-03-15T13:23:00.831Z,39.60
2019-03-15T13:25:30.499Z,39.20
2019-03-15T13:28:00.196Z,39.03
2019-03-15T13:30:29.927Z,38.77
2019-03-15T13:32:59.603Z,39.27
2019-03-15T13:35:29.267Z,38.87
2019-03-15T13:37:59.067Z,39.10
2019-03-15T13:40:28.868Z,39.43
2019-03-15T13:42:58.538Z,39.07
2019-03-15T13:45:28.232Z,38.67
2019-03-15T13:47:57.906Z,38.90
2019-03-15T13:50:27.638Z,38.80
2019-03-15T13:52:57.353Z,39.13
2019-03-15T13:55:27.058Z,39.07
2019-03-15T13:57:56.766Z,38.83
2019-03-15T14:00:26.448Z,39.37
2019-03-15T14:02:56.103Z,39.10
2019-03-15T14:05:25.771Z,39.17
2019-03-15T14:07:55.529Z,39.10
2019-03-15T14:10:25.182Z,39.43
2019-03-15T14:12:54.849Z,39.40
2019-03-15T14:15:25.037Z,39.00
2019-03-15T14:17:54.819Z,39.13
2019-03-15T14:20:24.470Z,39.67
2019-03-15T14:22:54.146Z,39.27
2019-03-15T14:25:27.238Z,39.07
2019-03-15T14:27:56.963Z,39.10
2019-03-15T14:30:28.296Z,39.10
2019-03-15T14:32:57.957Z,38.80
2019-03-15T14:35:27.643Z,38.57
2019-03-15T14:37:57.451Z,38.67
2019-03-15T14:40:27.542Z,39.10
2019-03-15T14:42:57.565Z,38.53
2019-03-15T14:45:28.838Z,38.63
2019-03-15T14:47:58.512Z,38.93
2019-03-15T14:50:28.161Z,38.80
2019-03-15T14:52:57.897Z,38.60
2019-03-15T14:55:27.790Z,38.50
2019-03-15T14:58:00.226Z,39.20
2019-03-15T15:00:28.911Z,39.23
2019-03-15T15:02:58.580Z,39.17
2019-03-15T15:05:28.237Z,39.00
2019-03-15T15:07:58.049Z,38.80
2019-03-15T15:10:28.387Z,39.37
2019-03-15T15:12:58.086Z,39.10
2019-03-15T15:15:27.782Z,38.73
2019-03-15T15:17:57.459Z,39.10
2019-03-15T15:20:27.130Z,38.53
2019-03-15T15:22:56.806Z,39.07
2019-03-15T15:25:27.265Z,39.03
2019-03-15T15:28:04.279Z,39.03
2019-03-15T15:30:30.106Z,39.37
2019-03-15T15:33:00.762Z,39.30
2019-03-15T15:35:31.012Z,38.50
2019-03-15T15:38:01.028Z,38.73
2019-03-15T15:40:30.761Z,39.37
2019-03-15T15:43:00.529Z,39.30
2019-03-15T15:45:30.218Z,38.77
2019-03-15T15:47:59.895Z,39.00
2019-03-15T15:50:29.559Z,39.00
2019-03-15T15:52:59.254Z,39.00
2019-03-15T15:55:28.920Z,38.77
2019-03-15T15:57:58.599Z,38.47
2019-03-15T16:00:28.290Z,39.47
2019-03-15T16:02:57.944Z,39.77
2019-03-15T16:05:27.697Z,39.00
2019-03-15T16:07:57.451Z,39.43
2019-03-15T16:10:27.102Z,38.50
2019-03-15T16:12:56.848Z,38.73
2019-03-15T16:15:26.536Z,39.17
2019-03-15T16:17:56.286Z,38.63
2019-03-15T16:20:25.983Z,39.10
2019-03-15T16:22:55.689Z,38.97
2019-03-15T16:25:25.355Z,39.07
2019-03-15T16:27:55.011Z,38.53
2019-03-15T16:30:24.756Z,39.63
2019-03-15T16:32:54.429Z,38.97
2019-03-15T16:35:24.101Z,39.00
2019-03-15T16:37:53.791Z,38.63
2019-03-15T16:40:23.481Z,39.43
2019-03-15T16:42:53.193Z,38.73
2019-03-15T16:45:31.969Z,39.27
2019-03-15T16:48:03.089Z,39.00
2019-03-15T16:50:32.796Z,39.00
2019-03-15T16:53:04.625Z,39.00
2019-03-15T16:55:34.818Z,39.03
2019-03-15T16:58:04.534Z,38.93
2019-03-15T17:00:34.222Z,38.90
2019-03-15T17:03:03.936Z,38.57
2019-03-15T17:05:33.608Z,39.30
2019-03-15T17:08:03.340Z,38.47
2019-03-15T17:10:33.036Z,39.00
2019-03-15T17:13:03.557Z,39.10
2019-03-15T17:15:33.811Z,38.80
2019-03-15T17:18:03.548Z,38.67
2019-03-15T17:20:34.744Z,38.73
2019-03-15T17:23:04.433Z,38.37
2019-03-15T17:25:34.092Z,38.73
2019-03-15T17:28:03.761Z,38.67
2019-03-15T17:30:33.541Z,38.60
2019-03-15T17:33:06.047Z,38.63
2019-03-15T17:35:34.579Z,39.23
2019-03-15T17:38:04.254Z,38.90
2019-03-15T17:40:33.947Z,38.97
2019-03-15T17:43:04.275Z,39.40
2019-03-15T17:45:33.983Z,39.03
2019-03-15T17:48:03.681Z,38.47
2019-03-15T17:50:33.340Z,38.90
2019-03-15T17:53:03.019Z,39.20
2019-03-15T17:55:32.717Z,39.40
2019-03-15T17:58:03.787Z,39.43
2019-03-15T18:00:51.085Z,39.87
2019-03-15T18:03:22.271Z,39.00
2019-03-15T18:05:53.536Z,40.10
2019-03-15T18:08:23.315Z,39.70
2019-03-15T18:10:53.104Z,40.67
2019-03-15T18:13:22.775Z,43.15
2019-03-15T18:15:52.470Z,41.17
2019-03-15T18:18:22.143Z,40.27
2019-03-15T18:20:51.962Z,39.67
2019-03-15T18:23:21.662Z,39.63
2019-03-15T18:25:51.353Z,39.37
2019-03-15T18:28:21.426Z,39.27
2019-03-15T18:30:51.133Z,39.37
2019-03-15T18:33:20.908Z,38.67
2019-03-15T18:35:50.582Z,39.73
2019-03-15T18:38:20.361Z,40.03
2019-03-15T18:40:50.049Z,39.20
2019-03-15T18:43:20.014Z,39.73
2019-03-15T18:45:51.803Z,39.63
2019-03-15T18:48:22.605Z,41.15
2019-03-15T18:50:52.282Z,39.40
2019-03-15T18:53:22.049Z,38.97
2019-03-15T18:55:51.831Z,38.70
2019-03-15T18:58:21.491Z,44.97
2019-03-15T19:00:51.178Z,39.10
2019-03-15T19:03:20.845Z,39.13
2019-03-15T19:05:50.635Z,39.20
2019-03-15T19:08:20.276Z,39.17
2019-03-15T19:10:49.937Z,39.43
2019-03-15T19:13:19.606Z,39.37
2019-03-15T19:15:49.375Z,39.40
2019-03-15T19:18:19.047Z,39.67
2019-03-15T19:20:48.758Z,40.00
2019-03-15T19:23:18.708Z,39.50
2019-03-15T19:25:48.391Z,39.37
2019-03-15T19:28:18.125Z,40.33
2019-03-15T19:30:47.892Z,39.17
2019-03-15T19:33:17.734Z,38.93
2019-03-15T19:35:47.512Z,38.90
2019-03-15T19:38:17.221Z,39.80
2019-03-15T19:40:47.024Z,39.03
2019-03-15T19:43:16.620Z,39.40
2019-03-15T19:45:46.409Z,39.77
2019-03-15T19:48:16.067Z,39.47
2019-03-15T19:50:45.760Z,39.80
2019-03-15T19:53:15.442Z,39.50
2019-03-15T19:55:45.114Z,39.40
2019-03-15T19:58:14.875Z,39.30
2019-03-15T20:00:44.558Z,38.77
2019-03-15T20:03:14.257Z,39.20
2019-03-15T20:05:43.887Z,38.83
2019-03-15T20:08:13.588Z,39.30
2019-03-15T20:10:43.237Z,38.83
2019-03-15T20:13:14.445Z,38.37
2019-03-15T20:15:44.134Z,39.07
2019-03-15T20:18:13.875Z,39.90
2019-03-15T20:20:43.617Z,39.20
2019-03-15T20:23:13.576Z,39.70
2019-03-15T20:25:43.321Z,39.40
2019-03-15T20:28:13.114Z,39.67
2019-03-15T20:30:51.671Z,38.43
2019-03-15T20:33:14.256Z,39.53
2019-03-15T20:35:43.950Z,38.33
2019-03-15T20:38:13.721Z,39.00
2019-03-15T20:40:43.406Z,39.07
2019-03-15T20:43:13.071Z,39.10
2019-03-15T20:45:42.781Z,39.23
2019-03-15T20:48:12.448Z,39.00
2019-03-15T20:50:47.000Z,38.53
2019-03-15T20:53:13.732Z,39.43
2019-03-15T20:55:43.471Z,38.67
2019-03-15T20:58:13.350Z,38.87
2019-03-15T21:00:43.042Z,39.03
2019-03-15T21:03:12.712Z,38.63
2019-03-15T21:05:42.399Z,39.10
2019-03-15T21:08:12.074Z,39.80
2019-03-15T21:10:41.798Z,39.27
2019-03-15T21:13:11.497Z,39.60
2019-03-15T21:15:42.923Z,39.00
2019-03-15T21:18:12.563Z,38.77
2019-03-15T21:20:42.352Z,38.53
2019-03-15T21:23:12.064Z,39.63
2019-03-15T21:25:41.748Z,38.90
2019-03-15T21:28:11.406Z,39.17
2019-03-15T21:30:48.311Z,39.67
2019-03-15T21:33:12.601Z,40.00
2019-03-15T21:35:42.295Z,39.83
2019-03-15T21:38:14.425Z,39.50
2019-03-15T21:40:44.163Z,39.30
2019-03-15T21:43:13.755Z,39.47
2019-03-15T21:45:43.518Z,39.33
2019-03-15T21:48:13.421Z,39.13
2019-03-15T21:50:43.094Z,39.30
2019-03-15T21:53:12.778Z,39.27
2019-03-15T21:55:42.501Z,40.33
2019-03-15T21:58:12.172Z,39.57
2019-03-15T22:00:41.867Z,38.80
2019-03-15T22:03:11.536Z,38.57
2019-03-15T22:05:41.196Z,38.80
2019-03-15T22:08:10.820Z,38.70
2019-03-15T22:10:40.694Z,39.37
2019-03-15T22:13:10.388Z,39.77
2019-03-15T22:15:40.092Z,39.40
2019-03-15T22:18:09.747Z,38.87
2019-03-15T22:20:39.487Z,39.27
2019-03-15T22:23:09.180Z,38.97
2019-03-15T22:25:38.866Z,38.67
2019-03-15T22:28:08.541Z,38.63
2019-03-15T22:30:38.271Z,39.53
2019-03-15T22:33:07.971Z,39.10
2019-03-15T22:35:37.498Z,39.03
2019-03-15T22:38:07.274Z,39.30
2019-03-15T22:40:37.046Z,39.20
2019-03-15T22:43:06.828Z,38.57
2019-03-15T22:45:36.526Z,38.70
2019-03-15T22:48:06.514Z,38.53
2019-03-15T22:50:36.318Z,38.30
2019-03-15T22:53:05.965Z,38.17
2019-03-15T22:55:35.636Z,38.53
2019-03-15T22:58:05.370Z,38.43
2019-03-15T23:00:38.772Z,38.37
2019-03-15T23:03:08.569Z,37.67
2019-03-15T23:05:38.314Z,38.10
2019-03-15T23:08:08.021Z,38.57
2019-03-15T23:10:37.711Z,38.47
2019-03-15T23:13:07.437Z,38.97
2019-03-15T23:15:37.135Z,37.97
2019-03-15T23:18:06.907Z,38.27
2019-03-15T23:20:36.599Z,38.40
2019-03-15T23:23:06.347Z,38.10
2019-03-15T23:25:36.195Z,38.53
2019-03-15T23:28:05.850Z,37.90
2019-03-15T23:30:35.534Z,38.37
2019-03-15T23:33:05.242Z,38.27
2019-03-15T23:35:34.963Z,37.70
2019-03-15T23:38:04.624Z,37.90
2019-03-15T23:40:34.295Z,38.27
2019-03-15T23:43:03.973Z,37.67
2019-03-15T23:45:33.682Z,37.87
2019-03-15T23:48:03.363Z,37.43
2019-03-15T23:50:33.086Z,37.53
2019-03-15T23:53:02.793Z,37.13
2019-03-15T23:55:32.606Z,37.70
2019-03-15T23:58:02.371Z,37.87
